Hysham, MT (59038)

5:22 PM MDT on August 27, 2014 (GMT -0600)
Custer | Change Station
CLOSE
Current Station
Personal Weather Station
Location: Waco, MT
Elevation: 2785 ft
Nearby Weather Stations

Elev 2785 ft 46.07 °N, 107.72 °W | Updated 4 minutes ago

Clear
Clear
85.8 °F
Feels Like 84 °F
N
1.0
Wind Variable Wind from West
Gusts 6.0 mph

Today
High -- | Low -- °F
--% Chance of Precip.
Yesterday
High -- | Low -- °F
Precip. -- in
6:23 AM 7:57 PM
Waxing Crescent, 5% visible
Pressure 29.92 in
Visibility 10.0 miles
Clouds Scattered Clouds 10000 ft
Scattered Clouds 20000 ft
Heat Index 84 °F
Dew Point 51 °F
Humidity 30%
Rainfall 0.00 in
Snow Depth Not available.
UV 3 out of 12
Pollen 9.30 out of 12
Air Quality Not available.
Flu Activity Not available.
METAR KBIL 272253Z 20005KT 10SM SCT100 SCT200 29/06 A3001 RMK AO2 SLP130 T02890061

More Conditions Fewer Conditions

Pressure 29.92 in
Visibility 10.0 miles
Clouds Scattered Clouds 10000 ft
Scattered Clouds 20000 ft
Heat Index 84 °F
Dew Point 51 °F
Humidity 30%
Rainfall 0.00 in
Snow Depth Not available.
UV 3 out of 12
Pollen 9.30 out of 12
Air Quality Not available.
Flu Activity Not available.
METAR KBIL 272253Z 20005KT 10SM SCT100 SCT200 29/06 A3001 RMK AO2 SLP130 T02890061

More Conditions Fewer Conditions

10-Day Weather Forecast

Almanac

Astronomy

Aug. 27, 2014 Rise Set
Actual Time 6:23 AM MDT 7:57 PM MDT
Civil Twilight 5:51 AM MDT 8:28 PM MDT
Nautical Twilight 5:13 AM MDT 9:07 PM MDT
Astronomical Twilight 4:32 AM MDT 9:48 PM MDT
Moon 8:31 AM MDT 8:40 PM MDT
Length of Visible Light 14h 36m
Length of Day
13h 33m
Tomorrow will be 3m 7s shorter.
Waxing Crescent, 5% of the Moon is Illuminated
Today
Waxing Crescent
Sep 2
First Quarter
Sep 8
Full
Sep 15
Last Quarter
Sep 24
New

Today's Extremes

State Highs State Lows

Community

WunderPhotos

Upload Photos

1,747,816 photos uploaded!

Nearby

Snow Depth

Station Depth Elevation
Crystal Lake 0 in 6050 ft
Porcupine 0 in 6500 ft
White Mill 1 in 8700 ft
Northeast Entrance 0 in 7350 ft
Monument Peak 0 in 8850 ft

Earthquake Activity

City Distance Mag. Time & Date
No recent earthquake activity has been reported nearby.
Minimum magnitude displayed is 2.5.

Coastal Water Temperatures

Place Temperature
No Stations Reporting

Nearby Weather Stations